Gilfach Goch, United Kingdom
Current Conditions -  °F | °C
As of 8:50 AM on Wednesday 26 Nov 2014 (Local Time) from EGDX Reporting Station
Haze Haze  
Wind Chill: 45°   Ceiling: 1200
Heat Index: 45°   Visibility: 5mi
Dew Point: 43°   Wind: 2mph
Humidity: 93%   Direction: 340°NNW
Pressure: 29.88"   Gusts: NA
Location:  51.59°N, 3.47°W
Report Text: EGDX 260850Z 34002KT 8000 BR OVC012 07/06 Q1012 GRN
Loading
Personal Weather Stations






























Interactive Weather Map New forecast layout! Learn more

10-Day Weather Forecast

Advertisements
Track Severe Weather on mobile